In Rescue
 
Open Full Screen Window  High Contrast Mode
Wind Gusting 00 knots
04
July 25, 2021 9:27 AM EDT
Weather Information
Wind Direction
  260 °
Wind Speed
  04 kt (5 mph)
Wind Gust
  00 kt (0 mph)
Altimeter
29.92 in
Visibility
10 SM
Temperature
24° C
75° F
Dewpoint
19° C
66° F
Humidity
74%
Sky Condition
Clear
VFR

METAR KAMN 251327Z AUTO 26004KT 10SM CLR 24/19 A2992 RMK AO2 T02370188

FAA Disclaimer: The data displayed is for advisory purposes only and is not to be used for flight planning or operations.